Time;durP1;ratioP1;P1;durP2;ratioP2;P2;SDS_P1;SDS_P2;PMS_P1;PMS_P2;Temp;Humidity;BMP_temperature;BMP_pressure;BME280_temperature;BME280_humidity;BME280_pressure;Samples;Min_cycle;Max_cycle;Signal;HPM_P1;HPM_P2
2022/10/12 00:00:57;;;;;;;25.02;15.43;;;;;;;;;;5012929;28;20096;-65
2022/10/12 00:03:24;;;;;;;19.35;15.43;;;;;;;;;;5013218;28;20133;-65
2022/10/12 00:06:21;;;;;;;19.55;14.48;;;;;;;;;;5012854;28;20153;-65
2022/10/12 00:08:49;;;;;;;23.05;15.27;;;;;;;;;;5007816;28;20081;-65
2022/10/12 00:11:21;;;;;;;26.75;16.13;;;;;;;;;;5012855;28;20328;-65
2022/10/12 00:13:47;;;;;;;21.50;16.13;;;;;;;;;;5012854;28;20398;-65
2022/10/12 00:16:15;;;;;;;22.75;16.35;;;;;;;;;;5012608;28;20085;-64
2022/10/12 00:18:42;;;;;;;23.48;15.82;;;;;;;;;;5012113;28;20493;-65
2022/10/12 00:21:13;;;;;;;22.77;16.55;;;;;;;;;;5012853;28;20077;-65
2022/10/12 00:23:40;;;;;;;20.98;15.20;;;;;;;;;;5012610;28;20054;-65
2022/10/12 00:26:12;;;;;;;23.67;15.05;;;;;;;;;;5012604;28;20420;-65
2022/10/12 00:28:38;;;;;;;20.33;16.42;;;;;;;;;;5010824;28;20080;-64
2022/10/12 00:31:09;;;;;;;21.70;15.15;;;;;;;;;;5012674;28;20172;-65
2022/10/12 00:33:39;;;;;;;24.67;15.05;;;;;;;;;;5012947;28;20077;-65
2022/10/12 00:36:12;;;;;;;24.92;14.73;;;;;;;;;;5012430;28;20492;-65
2022/10/12 00:38:38;;;;;;;19.15;14.20;;;;;;;;;;5011964;28;20208;-64
2022/10/12 00:41:05;;;;;;;18.15;14.82;;;;;;;;;;5012363;28;20089;-65
2022/10/12 00:43:36;;;;;;;22.65;15.55;;;;;;;;;;5012264;28;20049;-65
2022/10/12 00:46:08;;;;;;;23.85;15.68;;;;;;;;;;5012197;28;20531;-65
2022/10/12 00:48:35;;;;;;;22.25;15.20;;;;;;;;;;4994403;28;20077;-64
2022/10/12 00:51:02;;;;;;;20.80;16.35;;;;;;;;;;5011198;28;20049;-65
2022/10/12 00:53:31;;;;;;;21.13;15.45;;;;;;;;;;5011113;28;20176;-65
2022/10/12 00:56:00;;;;;;;24.15;15.65;;;;;;;;;;4994917;28;20089;-64
2022/10/12 00:58:30;;;;;;;32.50;16.52;;;;;;;;;;5010421;28;20449;-65
2022/10/12 01:01:03;;;;;;;25.50;16.67;;;;;;;;;;5010966;28;20088;-65
2022/10/12 01:03:30;;;;;;;22.65;16.20;;;;;;;;;;5012242;28;20049;-64
2022/10/12 01:05:57;;;;;;;25.65;16.15;;;;;;;;;;5012041;28;20050;-65
2022/10/12 01:08:24;;;;;;;27.75;18.25;;;;;;;;;;4994144;28;20041;-65
2022/10/12 01:10:50;;;;;;;24.95;15.82;;;;;;;;;;5012162;28;20137;-65
2022/10/12 01:13:17;;;;;;;25.45;15.93;;;;;;;;;;5010280;28;20081;-64
2022/10/12 01:16:05;;;;;;;26.80;16.48;;;;;;;;;;5010863;28;20509;-65
2022/10/12 01:19:07;;;;;;;23.00;15.52;;;;;;;;;;5010368;28;20077;-64
2022/10/12 01:21:36;;;;;;;25.52;15.88;;;;;;;;;;5001874;28;20085;-64
2022/10/12 01:24:20;;;;;;;24.35;16.73;;;;;;;;;;4994816;28;20092;-65
2022/10/12 01:27:02;;;;;;;24.80;16.67;;;;;;;;;;5010534;28;20512;-65
2022/10/12 01:29:55;;;;;;;26.97;16.67;;;;;;;;;;4995091;28;20078;-65
2022/10/12 01:32:28;;;;;;;25.58;17.02;;;;;;;;;;5013394;28;20089;-63
2022/10/12 01:35:34;;;;;;;23.35;16.38;;;;;;;;;;5033275;28;20050;-62
2022/10/12 01:38:11;;;;;;;27.95;17.40;;;;;;;;;;5010774;28;20058;-64
2022/10/12 01:40:59;;;;;;;24.92;16.50;;;;;;;;;;5010655;28;20089;-64
2022/10/12 01:43:39;;;;;;;25.67;17.42;;;;;;;;;;5010747;28;20081;-64
2022/10/12 01:46:11;;;;;;;21.60;17.40;;;;;;;;;;5011839;28;20484;-65
2022/10/12 01:48:38;;;;;;;27.27;15.82;;;;;;;;;;5011570;28;20505;-63
2022/10/12 01:51:05;;;;;;;24.45;16.45;;;;;;;;;;5011760;28;20140;-64
2022/10/12 01:53:32;;;;;;;30.42;18.08;;;;;;;;;;5011626;28;20489;-63
2022/10/12 01:56:04;;;;;;;25.75;17.77;;;;;;;;;;5011581;28;20501;-63
2022/10/12 01:58:30;;;;;;;26.67;17.58;;;;;;;;;;5011333;28;20081;-63
2022/10/12 02:01:20;;;;;;;24.52;16.13;;;;;;;;;;5015474;28;20088;-64
2022/10/12 02:04:00;;;;;;;23.67;16.98;;;;;;;;;;5014420;28;20065;-64
2022/10/12 02:06:33;;;;;;;24.98;17.05;;;;;;;;;;5014023;28;20085;-63
2022/10/12 02:09:21;;;;;;;30.73;17.00;;;;;;;;;;4997132;28;20132;-64
2022/10/12 02:11:47;;;;;;;25.52;16.88;;;;;;;;;;4997995;28;20085;-63
2022/10/12 02:14:15;;;;;;;26.85;16.38;;;;;;;;;;4995830;28;20500;-64
2022/10/12 02:16:51;;;;;;;23.50;15.50;;;;;;;;;;4997761;28;20045;-64
2022/10/12 02:19:26;;;;;;;21.45;15.75;;;;;;;;;;5013169;28;20085;-64
2022/10/12 02:21:53;;;;;;;23.27;16.27;;;;;;;;;;4997915;28;20053;-63
2022/10/12 02:24:20;;;;;;;31.38;19.13;;;;;;;;;;5013641;28;20093;-63
2022/10/12 02:26:47;;;;;;;34.80;19.55;;;;;;;;;;5013616;28;20188;-64
2022/10/12 02:29:16;;;;;;;28.88;17.83;;;;;;;;;;4996870;28;20093;-63
2022/10/12 02:31:56;;;;;;;27.65;17.70;;;;;;;;;;5013419;28;20086;-65
2022/10/12 02:34:42;;;;;;;22.83;17.25;;;;;;;;;;5014957;28;20116;-65
2022/10/12 02:37:14;;;;;;;26.15;16.95;;;;;;;;;;5014714;28;20124;-64
2022/10/12 02:39:53;;;;;;;22.15;16.25;;;;;;;;;;5014100;28;20045;-64
2022/10/12 02:42:23;;;;;;;24.92;17.58;;;;;;;;;;4998514;28;20100;-63
2022/10/12 02:44:51;;;;;;;28.25;17.95;;;;;;;;;;5013546;28;20116;-64
2022/10/12 02:47:17;;;;;;;27.23;19.45;;;;;;;;;;4997078;28;20125;-64
2022/10/12 02:49:44;;;;;;;28.77;18.77;;;;;;;;;;4996298;28;20453;-64
2022/10/12 02:52:11;;;;;;;29.60;19.10;;;;;;;;;;5013380;28;20085;-63
2022/10/12 02:54:38;;;;;;;28.20;18.77;;;;;;;;;;5014173;28;20096;-64
2022/10/12 02:57:05;;;;;;;25.98;17.83;;;;;;;;;;5013208;28;20421;-64
2022/10/12 02:59:31;;;;;;;26.95;16.95;;;;;;;;;;5013551;28;20494;-64
2022/10/12 03:01:58;;;;;;;26.48;17.63;;;;;;;;;;5014301;28;20053;-63
2022/10/12 03:04:24;;;;;;;30.98;17.92;;;;;;;;;;5014104;28;20085;-64
2022/10/12 03:06:51;;;;;;;26.75;17.33;;;;;;;;;;5014085;28;20081;-63
2022/10/12 03:09:18;;;;;;;25.23;16.63;;;;;;;;;;5013234;28;20098;-64
2022/10/12 03:11:44;;;;;;;24.08;16.88;;;;;;;;;;5013111;28;20105;-64
2022/10/12 03:14:12;;;;;;;22.45;16.50;;;;;;;;;;5012161;28;20141;-64
2022/10/12 03:16:38;;;;;;;24.98;17.55;;;;;;;;;;5013797;28;20080;-62
2022/10/12 03:19:05;;;;;;;23.85;16.67;;;;;;;;;;5013618;28;20493;-65
2022/10/12 03:21:32;;;;;;;22.90;15.93;;;;;;;;;;5013566;28;20054;-65
2022/10/12 03:23:58;;;;;;;30.85;18.25;;;;;;;;;;5013619;28;20089;-65
2022/10/12 03:26:25;;;;;;;28.27;17.60;;;;;;;;;;5013977;28;20065;-63
2022/10/12 03:28:51;;;;;;;25.35;16.52;;;;;;;;;;5013243;28;20132;-64
2022/10/12 03:31:18;;;;;;;21.92;16.13;;;;;;;;;;5013769;28;20057;-63
2022/10/12 03:33:45;;;;;;;27.08;17.25;;;;;;;;;;5013470;28;20111;-63
2022/10/12 03:36:11;;;;;;;23.58;17.58;;;;;;;;;;5013435;28;20416;-63
2022/10/12 03:38:38;;;;;;;22.80;15.77;;;;;;;;;;5012866;28;20046;-63
2022/10/12 03:41:04;;;;;;;22.70;15.18;;;;;;;;;;5013692;28;20136;-63
2022/10/12 03:43:32;;;;;;;23.20;14.93;;;;;;;;;;5013530;28;20427;-63
2022/10/12 03:45:59;;;;;;;18.70;15.10;;;;;;;;;;5013371;28;20085;-63
2022/10/12 03:48:26;;;;;;;23.27;15.65;;;;;;;;;;5013012;28;20527;-63
2022/10/12 03:50:52;;;;;;;25.95;15.70;;;;;;;;;;5013005;28;20112;-64
2022/10/12 03:53:19;;;;;;;25.00;16.05;;;;;;;;;;5013543;28;20442;-64
2022/10/12 03:55:46;;;;;;;25.80;15.95;;;;;;;;;;5012972;28;20096;-63
2022/10/12 03:58:13;;;;;;;20.52;15.10;;;;;;;;;;5012823;28;20104;-63
2022/10/12 04:00:39;;;;;;;25.85;15.40;;;;;;;;;;5013024;28;20158;-63
2022/10/12 04:03:06;;;;;;;19.60;15.63;;;;;;;;;;5012950;28;20053;-63
2022/10/12 04:05:32;;;;;;;20.27;15.88;;;;;;;;;;5012893;28;20103;-63
2022/10/12 04:07:59;;;;;;;22.42;15.20;;;;;;;;;;5012597;28;20119;-63
2022/10/12 04:10:26;;;;;;;20.50;14.32;;;;;;;;;;5012756;28;20084;-63
2022/10/12 04:12:52;;;;;;;23.20;17.55;;;;;;;;;;5011273;28;20567;-63
2022/10/12 04:15:19;;;;;;;22.00;15.43;;;;;;;;;;5012826;28;20479;-63
2022/10/12 04:17:45;;;;;;;20.70;14.63;;;;;;;;;;5012865;28;20053;-62
2022/10/12 04:20:12;;;;;;;22.40;16.02;;;;;;;;;;5012469;28;20073;-62
2022/10/12 04:22:38;;;;;;;17.75;14.60;;;;;;;;;;5013013;28;20116;-63
2022/10/12 04:25:05;;;;;;;20.48;15.75;;;;;;;;;;5012657;28;20049;-63
2022/10/12 04:27:32;;;;;;;20.60;15.93;;;;;;;;;;5012508;28;20085;-63
2022/10/12 04:29:59;;;;;;;24.52;17.92;;;;;;;;;;5011861;28;20092;-63
2022/10/12 04:32:25;;;;;;;27.60;16.33;;;;;;;;;;5012529;28;20490;-63
2022/10/12 04:34:52;;;;;;;21.98;15.63;;;;;;;;;;5012356;28;20089;-63
2022/10/12 04:37:19;;;;;;;21.48;16.20;;;;;;;;;;5012751;28;20049;-63
2022/10/12 04:39:45;;;;;;;22.38;16.92;;;;;;;;;;5011821;28;20100;-63
2022/10/12 04:42:12;;;;;;;24.52;16.23;;;;;;;;;;5012637;28;20393;-63
2022/10/12 04:44:38;;;;;;;23.33;16.25;;;;;;;;;;5012319;28;20053;-63
2022/10/12 04:47:05;;;;;;;23.02;16.63;;;;;;;;;;5012230;28;20456;-62
2022/10/12 04:49:32;;;;;;;20.63;16.55;;;;;;;;;;5011955;28;20136;-63
2022/10/12 04:51:58;;;;;;;19.90;15.48;;;;;;;;;;5012382;28;20050;-63
2022/10/12 04:54:25;;;;;;;21.67;14.90;;;;;;;;;;5012023;28;20045;-63
2022/10/12 04:56:51;;;;;;;20.88;14.65;;;;;;;;;;5012090;28;20516;-63
2022/10/12 04:59:18;;;;;;;21.13;15.02;;;;;;;;;;5011521;28;20465;-63
2022/10/12 05:01:45;;;;;;;22.05;14.85;;;;;;;;;;5012023;28;20144;-63
2022/10/12 05:04:11;;;;;;;22.48;14.85;;;;;;;;;;5012067;28;20058;-63
2022/10/12 05:06:38;;;;;;;20.50;14.60;;;;;;;;;;5012036;28;20085;-63
2022/10/12 05:09:04;;;;;;;20.30;14.88;;;;;;;;;;5011300;28;20053;-63
2022/10/12 05:11:31;;;;;;;22.70;14.60;;;;;;;;;;5012130;28;20124;-63
2022/10/12 05:13:58;;;;;;;23.63;15.05;;;;;;;;;;5010876;28;20575;-63
2022/10/12 05:16:24;;;;;;;18.85;16.30;;;;;;;;;;5011913;28;20180;-63
2022/10/12 05:18:51;;;;;;;25.08;16.92;;;;;;;;;;5011531;28;20137;-63
2022/10/12 05:21:17;;;;;;;26.25;16.45;;;;;;;;;;5012109;28;20054;-63
2022/10/12 05:23:44;;;;;;;32.72;18.13;;;;;;;;;;5010792;28;20050;-63
2022/10/12 05:26:10;;;;;;;26.88;18.23;;;;;;;;;;5010468;28;20420;-63
2022/10/12 05:28:37;;;;;;;24.38;16.08;;;;;;;;;;5011402;28;20206;-63
2022/10/12 05:31:07;;;;;;;26.73;17.52;;;;;;;;;;5011651;28;20054;-63
2022/10/12 05:33:33;;;;;;;25.23;16.75;;;;;;;;;;5012765;28;20062;-63
2022/10/12 05:36:00;;;;;;;25.73;17.60;;;;;;;;;;5015704;28;20100;-63
2022/10/12 05:38:26;;;;;;;24.67;17.33;;;;;;;;;;5015243;28;20053;-63
2022/10/12 05:40:53;;;;;;;26.40;18.23;;;;;;;;;;5015458;28;20045;-63
2022/10/12 05:43:26;;;;;;;27.15;17.95;;;;;;;;;;5015618;28;20054;-64
2022/10/12 05:45:52;;;;;;;27.90;18.13;;;;;;;;;;5015644;28;20444;-63
2022/10/12 05:48:19;;;;;;;26.42;18.08;;;;;;;;;;5015148;28;20054;-63
2022/10/12 05:50:45;;;;;;;30.77;18.73;;;;;;;;;;5015213;28;20049;-63
2022/10/12 05:53:12;;;;;;;28.40;19.15;;;;;;;;;;5015287;28;20575;-63
2022/10/12 05:55:39;;;;;;;27.98;17.60;;;;;;;;;;5015269;28;20563;-63
2022/10/12 05:58:05;;;;;;;26.98;17.63;;;;;;;;;;5014813;28;20081;-63
2022/10/12 06:00:32;;;;;;;28.73;18.42;;;;;;;;;;5015098;28;20085;-63
2022/10/12 06:02:58;;;;;;;28.55;18.77;;;;;;;;;;5015346;28;20057;-63
2022/10/12 06:05:25;;;;;;;32.83;19.02;;;;;;;;;;5015222;28;20085;-63
2022/10/12 06:07:51;;;;;;;27.65;18.75;;;;;;;;;;5014469;28;20133;-63
2022/10/12 06:10:18;;;;;;;25.55;17.27;;;;;;;;;;5014851;28;20096;-63
2022/10/12 06:12:45;;;;;;;25.42;18.05;;;;;;;;;;5013741;28;20135;-63
2022/10/12 06:15:11;;;;;;;26.42;18.15;;;;;;;;;;5015452;28;20050;-63
2022/10/12 06:17:38;;;;;;;28.35;17.35;;;;;;;;;;5014947;28;20096;-64
2022/10/12 06:20:05;;;;;;;28.80;16.95;;;;;;;;;;5014577;28;20125;-63
2022/10/12 06:22:32;;;;;;;27.73;16.02;;;;;;;;;;5014873;28;20116;-63
2022/10/12 06:24:58;;;;;;;25.48;17.05;;;;;;;;;;5014723;28;20092;-63
2022/10/12 06:27:25;;;;;;;27.50;17.80;;;;;;;;;;5014628;28;20050;-63
2022/10/12 06:29:51;;;;;;;22.08;14.98;;;;;;;;;;5014300;28;20081;-63
2022/10/12 06:32:18;;;;;;;23.50;15.88;;;;;;;;;;5014840;28;20141;-63
2022/10/12 06:34:45;;;;;;;22.13;15.52;;;;;;;;;;5014634;28;20050;-63
2022/10/12 06:37:12;;;;;;;20.23;15.18;;;;;;;;;;5014520;28;20072;-63
2022/10/12 06:39:58;;;;;;;21.92;15.65;;;;;;;;;;5013959;28;20085;-63
2022/10/12 06:42:25;;;;;;;23.63;14.93;;;;;;;;;;5014675;28;20053;-63
2022/10/12 06:44:51;;;;;;;24.58;16.60;;;;;;;;;;5013854;28;20053;-63
2022/10/12 06:47:18;;;;;;;20.77;14.13;;;;;;;;;;5013952;28;20057;-63
2022/10/12 06:49:44;;;;;;;27.23;15.45;;;;;;;;;;5013541;28;20092;-63
2022/10/12 06:52:11;;;;;;;22.27;15.27;;;;;;;;;;5014180;28;20500;-63
2022/10/12 06:54:38;;;;;;;20.23;14.02;;;;;;;;;;5014441;28;20436;-63
2022/10/12 06:57:05;;;;;;;19.95;13.55;;;;;;;;;;5014493;28;20050;-63
2022/10/12 06:59:31;;;;;;;25.63;15.65;;;;;;;;;;5012491;28;20526;-63
2022/10/12 07:01:58;;;;;;;24.17;14.88;;;;;;;;;;5014120;28;20152;-63
2022/10/12 07:04:25;;;;;;;19.48;13.88;;;;;;;;;;5014004;28;20088;-63
2022/10/12 07:06:52;;;;;;;19.02;13.65;;;;;;;;;;5013707;28;20046;-63
2022/10/12 07:09:18;;;;;;;18.23;13.38;;;;;;;;;;5012114;28;20140;-63
2022/10/12 07:11:45;;;;;;;19.23;14.20;;;;;;;;;;5013959;28;20046;-63
2022/10/12 07:14:11;;;;;;;22.90;14.43;;;;;;;;;;5013912;28;20100;-63
2022/10/12 07:16:38;;;;;;;19.23;14.07;;;;;;;;;;5013804;28;20054;-63
2022/10/12 07:19:05;;;;;;;19.35;15.90;;;;;;;;;;5013170;28;20096;-63
2022/10/12 07:21:31;;;;;;;21.30;14.93;;;;;;;;;;5013855;28;20128;-63
2022/10/12 07:23:58;;;;;;;21.70;14.77;;;;;;;;;;5013816;28;20053;-64
2022/10/12 07:26:25;;;;;;;26.23;14.55;;;;;;;;;;5013774;28;20137;-63
2022/10/12 07:28:51;;;;;;;21.52;14.50;;;;;;;;;;5012995;28;20077;-63
2022/10/12 07:31:18;;;;;;;21.02;13.63;;;;;;;;;;5013315;28;20509;-63
2022/10/12 07:33:45;;;;;;;19.40;12.90;;;;;;;;;;5013305;28;20563;-63
2022/10/12 07:36:11;;;;;;;27.00;14.18;;;;;;;;;;5013227;28;20640;-63
2022/10/12 07:38:43;;;;;;;15.20;12.23;;;;;;;;;;5012837;28;20501;-63
2022/10/12 07:41:11;;;;;;;21.67;13.55;;;;;;;;;;5013527;28;20057;-63
2022/10/12 07:43:38;;;;;;;19.95;12.80;;;;;;;;;;5013451;28;20088;-63
2022/10/12 07:46:04;;;;;;;18.25;12.95;;;;;;;;;;5013308;28;20491;-63
2022/10/12 07:48:31;;;;;;;15.32;12.20;;;;;;;;;;5012654;28;20081;-63
2022/10/12 07:51:05;;;;;;;18.60;12.57;;;;;;;;;;5013202;28;20073;-63
2022/10/12 07:53:33;;;;;;;17.27;13.77;;;;;;;;;;5013363;28;20081;-63
2022/10/12 07:56:04;;;;;;;18.75;13.55;;;;;;;;;;5013140;28;20053;-63
2022/10/12 07:58:31;;;;;;;19.45;13.07;;;;;;;;;;5012402;28;20081;-63
2022/10/12 08:01:08;;;;;;;16.85;13.65;;;;;;;;;;5013249;28;20141;-63
2022/10/12 08:03:34;;;;;;;17.83;12.70;;;;;;;;;;5013213;28;20049;-63
2022/10/12 08:06:08;;;;;;;23.38;14.75;;;;;;;;;;5012991;28;20053;-63
2022/10/12 08:08:35;;;;;;;20.25;15.05;;;;;;;;;;5012599;28;20104;-63
2022/10/12 08:11:03;;;;;;;16.30;13.07;;;;;;;;;;5012912;28;20046;-63
2022/10/12 08:13:30;;;;;;;17.75;12.43;;;;;;;;;;5012725;28;20054;-63
2022/10/12 08:15:57;;;;;;;20.45;13.95;;;;;;;;;;5012688;28;20054;-63
2022/10/12 08:18:23;;;;;;;18.30;14.35;;;;;;;;;;5012690;28;20389;-63
2022/10/12 08:20:50;;;;;;;17.63;12.98;;;;;;;;;;5012339;28;20459;-63
2022/10/12 08:23:16;;;;;;;17.33;13.13;;;;;;;;;;5012676;28;20050;-63
2022/10/12 08:25:51;;;;;;;18.48;13.77;;;;;;;;;;5012512;28;20054;-63
2022/10/12 08:28:18;;;;;;;17.42;13.07;;;;;;;;;;5012136;28;20081;-63
2022/10/12 08:30:44;;;;;;;20.35;13.20;;;;;;;;;;5012371;28;20076;-63
2022/10/12 08:33:12;;;;;;;21.80;13.63;;;;;;;;;;5012603;28;20088;-63
2022/10/12 08:35:39;;;;;;;19.40;12.38;;;;;;;;;;5012742;28;20085;-63
2022/10/12 08:38:07;;;;;;;16.17;12.52;;;;;;;;;;5012273;28;20544;-63
2022/10/12 08:40:35;;;;;;;23.25;12.43;;;;;;;;;;5012387;28;20088;-63
2022/10/12 08:43:07;;;;;;;18.10;12.15;;;;;;;;;;5011913;28;20453;-63
2022/10/12 08:46:06;;;;;;;16.85;12.60;;;;;;;;;;5011616;28;20485;-63
2022/10/12 08:48:45;;;;;;;15.82;12.57;;;;;;;;;;4999868;28;20085;-63
2022/10/12 08:51:13;;;;;;;17.25;11.57;;;;;;;;;;5012412;28;20469;-63
2022/10/12 08:53:48;;;;;;;20.23;13.15;;;;;;;;;;4995259;28;20191;-63
2022/10/12 08:56:17;;;;;;;18.95;12.98;;;;;;;;;;5012115;28;20081;-63
2022/10/12 08:58:44;;;;;;;16.85;13.18;;;;;;;;;;5011776;28;20050;-63
2022/10/12 09:01:37;;;;;;;18.48;13.18;;;;;;;;;;5010936;28;20559;-63
2022/10/12 09:04:32;;;;;;;19.52;14.35;;;;;;;;;;5011343;28;20164;-63
2022/10/12 09:07:21;;;;;;;21.55;14.07;;;;;;;;;;5012297;28;20081;-63
2022/10/12 09:09:59;;;;;;;16.80;13.70;;;;;;;;;;5009783;28;20521;-63
2022/10/12 09:12:52;;;;;;;18.05;13.73;;;;;;;;;;5012271;28;20073;-63
2022/10/12 09:15:32;;;;;;;19.60;13.70;;;;;;;;;;5002502;28;20551;-63
2022/10/12 09:17:59;;;;;;;17.15;13.65;;;;;;;;;;4995586;28;20054;-63
2022/10/12 09:20:29;;;;;;;22.48;15.68;;;;;;;;;;4994576;28;20049;-63
2022/10/12 09:23:35;;;;;;;22.90;14.70;;;;;;;;;;5010894;28;20144;-67
2022/10/12 09:26:16;;;;;;;18.38;13.02;;;;;;;;;;5010704;28;20062;-63
2022/10/12 09:28:45;;;;;;;19.23;13.65;;;;;;;;;;5012124;28;20049;-64
2022/10/12 09:31:17;;;;;;;22.75;13.13;;;;;;;;;;5010581;28;20045;-63
2022/10/12 09:33:50;;;;;;;21.63;13.93;;;;;;;;;;5011852;28;20498;-63
2022/10/12 09:36:19;;;;;;;16.10;12.27;;;;;;;;;;4994753;28;20085;-63
2022/10/12 09:38:47;;;;;;;16.02;11.30;;;;;;;;;;5010067;28;20096;-64
2022/10/12 09:41:20;;;;;;;22.33;11.50;;;;;;;;;;5010820;28;20077;-65
2022/10/12 09:43:54;;;;;;;14.23;10.40;;;;;;;;;;5010816;28;20108;-64
2022/10/12 09:46:34;;;;;;;13.38;9.18;;;;;;;;;;4994858;28;20075;-64
2022/10/12 09:49:01;;;;;;;15.15;10.07;;;;;;;;;;5009934;28;20112;-64
2022/10/12 09:51:28;;;;;;;13.90;9.52;;;;;;;;;;5011433;28;20500;-64
2022/10/12 09:53:54;;;;;;;10.82;7.70;;;;;;;;;;5011551;28;20104;-63
2022/10/12 09:56:29;;;;;;;17.20;8.80;;;;;;;;;;5012910;28;20061;-63
2022/10/12 09:58:59;;;;;;;12.82;9.80;;;;;;;;;;4994189;28;20057;-64
2022/10/12 10:01:34;;;;;;;13.27;8.63;;;;;;;;;;5010442;28;20181;-63
2022/10/12 10:04:17;;;;;;;19.05;9.50;;;;;;;;;;5010342;28;20057;-64
2022/10/12 10:06:45;;;;;;;14.65;10.15;;;;;;;;;;5010511;28;20089;-64
2022/10/12 10:09:30;;;;;;;16.13;9.48;;;;;;;;;;5011464;28;20049;-64
2022/10/12 10:12:10;;;;;;;13.05;9.27;;;;;;;;;;5010508;28;20046;-63
2022/10/12 10:14:37;;;;;;;13.88;9.77;;;;;;;;;;4994660;28;20088;-65
2022/10/12 10:17:03;;;;;;;13.73;9.00;;;;;;;;;;5010084;28;20140;-63
2022/10/12 10:19:30;;;;;;;18.55;10.88;;;;;;;;;;5011626;28;20050;-64
2022/10/12 10:22:03;;;;;;;13.68;9.93;;;;;;;;;;5013733;28;20524;-64
2022/10/12 10:24:30;;;;;;;18.13;10.35;;;;;;;;;;4998189;28;20108;-63
2022/10/12 10:26:59;;;;;;;16.10;10.38;;;;;;;;;;4997161;28;20050;-64
2022/10/12 10:29:37;;;;;;;15.27;9.82;;;;;;;;;;5014115;28;20076;-64
2022/10/12 10:32:28;;;;;;;13.55;9.10;;;;;;;;;;5014732;28;20081;-64
2022/10/12 10:35:16;;;;;;;15.90;9.73;;;;;;;;;;5014715;28;20113;-65
2022/10/12 10:37:48;;;;;;;15.05;9.00;;;;;;;;;;5014650;28;20073;-65
2022/10/12 10:40:24;;;;;;;17.13;9.90;;;;;;;;;;5013265;28;20050;-63
2022/10/12 10:43:00;;;;;;;18.08;10.15;;;;;;;;;;5014677;28;20092;-64
2022/10/12 10:45:31;;;;;;;16.92;9.55;;;;;;;;;;5013053;28;20140;-64
2022/10/12 10:48:07;;;;;;;15.20;9.50;;;;;;;;;;5013954;28;20046;-63
2022/10/12 10:50:41;;;;;;;18.13;9.18;;;;;;;;;;4997216;28;20093;-65
2022/10/12 10:53:15;;;;;;;17.42;11.35;;;;;;;;;;5014713;28;20508;-65
2022/10/12 10:56:04;;;;;;;15.57;10.75;;;;;;;;;;5013184;28;20141;-63
2022/10/12 10:58:48;;;;;;;19.02;11.32;;;;;;;;;;5012597;28;20508;-64
2022/10/12 11:01:19;;;;;;;19.10;10.75;;;;;;;;;;5014231;28;20493;-64
2022/10/12 11:03:46;;;;;;;14.70;9.73;;;;;;;;;;4997220;28;20054;-64
2022/10/12 11:06:38;;;;;;;17.67;10.23;;;;;;;;;;5013982;28;20513;-63
2022/10/12 11:09:29;;;;;;;12.25;8.18;;;;;;;;;;5012605;28;20049;-63
2022/10/12 11:12:03;;;;;;;18.02;8.68;;;;;;;;;;5012770;28;20132;-64
2022/10/12 11:14:35;;;;;;;19.55;10.63;;;;;;;;;;5014095;28;20108;-64
2022/10/12 11:17:06;;;;;;;15.15;10.85;;;;;;;;;;4997012;28;20053;-63
2022/10/12 11:19:43;;;;;;;15.05;10.88;;;;;;;;;;5012213;28;20116;-63
2022/10/12 11:22:48;;;;;;;13.52;9.80;;;;;;;;;;5012839;28;20116;-63
2022/10/12 11:25:29;;;;;;;12.30;9.10;;;;;;;;;;5009609;28;20513;-65
2022/10/12 11:27:55;;;;;;;15.07;7.68;;;;;;;;;;5011835;28;20115;-65
2022/10/12 11:30:24;;;;;;;13.70;7.43;;;;;;;;;;5012303;28;20493;-63
2022/10/12 11:33:05;;;;;;;16.05;8.35;;;;;;;;;;5013133;28;20128;-65
2022/10/12 11:35:37;;;;;;;13.23;7.68;;;;;;;;;;5012389;28;20493;-65
2022/10/12 11:38:06;;;;;;;14.93;7.32;;;;;;;;;;4995806;28;20046;-65
2022/10/12 11:41:05;;;;;;;13.38;7.88;;;;;;;;;;4997059;28;20100;-65
2022/10/12 11:44:06;;;;;;;14.37;7.60;;;;;;;;;;5012366;28;20089;-65
2022/10/12 11:46:42;;;;;;;10.77;8.15;;;;;;;;;;4996204;28;20339;-64
2022/10/12 11:49:23;;;;;;;10.63;7.55;;;;;;;;;;5012667;28;20053;-65
2022/10/12 11:51:50;;;;;;;11.85;7.82;;;;;;;;;;5013140;28;20140;-64
2022/10/12 11:54:45;;;;;;;12.20;9.07;;;;;;;;;;5013137;28;20116;-66
2022/10/12 11:57:16;;;;;;;12.35;8.00;;;;;;;;;;5004733;28;20093;-66
2022/10/12 11:59:49;;;;;;;12.98;8.25;;;;;;;;;;5011559;28;20054;-66
2022/10/12 12:02:29;;;;;;;13.32;8.02;;;;;;;;;;5012179;28;20046;-65
2022/10/12 12:04:55;;;;;;;12.35;7.80;;;;;;;;;;5013109;28;20136;-66
2022/10/12 12:07:41;;;;;;;14.55;8.23;;;;;;;;;;5011989;28;20049;-66
2022/10/12 12:10:26;;;;;;;9.88;7.03;;;;;;;;;;5012611;28;20084;-65
2022/10/12 12:13:16;;;;;;;14.32;8.45;;;;;;;;;;5011098;28;20141;-64
2022/10/12 12:15:46;;;;;;;10.63;7.00;;;;;;;;;;5012817;28;20050;-65
2022/10/12 12:18:19;;;;;;;14.98;7.63;;;;;;;;;;5012485;28;20045;-65
2022/10/12 12:20:46;;;;;;;10.65;6.85;;;;;;;;;;5012834;28;20124;-65
2022/10/12 12:23:21;;;;;;;14.88;7.75;;;;;;;;;;5012701;28;20093;-66
2022/10/12 12:25:57;;;;;;;14.80;9.00;;;;;;;;;;5011418;28;20344;-65
2022/10/12 12:28:23;;;;;;;15.80;8.20;;;;;;;;;;4995827;28;20050;-66
2022/10/12 12:31:01;;;;;;;12.07;7.15;;;;;;;;;;4995345;28;20057;-65
2022/10/12 12:33:40;;;;;;;12.25;6.82;;;;;;;;;;4996017;28;20513;-65
2022/10/12 12:36:12;;;;;;;10.70;7.68;;;;;;;;;;5012427;28;20084;-66
2022/10/12 12:38:42;;;;;;;17.15;7.38;;;;;;;;;;5010757;28;20136;-66
2022/10/12 12:41:15;;;;;;;10.98;6.43;;;;;;;;;;5012388;28;20493;-66
2022/10/12 12:43:52;;;;;;;11.43;6.63;;;;;;;;;;5011591;28;20136;-64
2022/10/12 12:46:20;;;;;;;21.88;8.65;;;;;;;;;;5011212;28;20060;-65
2022/10/12 12:48:46;;;;;;;9.73;7.20;;;;;;;;;;5012036;28;20049;-65
2022/10/12 12:51:14;;;;;;;12.02;8.45;;;;;;;;;;5012235;28;20054;-65
2022/10/12 12:54:08;;;;;;;9.65;6.97;;;;;;;;;;5011229;28;20129;-65
2022/10/12 12:56:59;;;;;;;12.18;6.63;;;;;;;;;;5008474;28;20129;-65
2022/10/12 12:59:53;;;;;;;15.95;6.65;;;;;;;;;;4995208;28;20567;-66
2022/10/12 13:02:54;;;;;;;10.85;6.20;;;;;;;;;;5012275;28;20093;-66
2022/10/12 13:05:50;;;;;;;10.77;6.25;;;;;;;;;;5012595;28;20046;-65
2022/10/12 13:08:25;;;;;;;11.05;6.30;;;;;;;;;;5010832;28;20104;-65
2022/10/12 13:11:26;;;;;;;6.10;4.95;;;;;;;;;;5010933;28;20108;-66
2022/10/12 13:14:14;;;;;;;8.93;4.85;;;;;;;;;;5010538;28;20104;-66
2022/10/12 13:17:15;;;;;;;7.18;4.50;;;;;;;;;;5012058;28;20045;-65
2022/10/12 13:20:00;;;;;;;11.50;5.78;;;;;;;;;;5011070;28;20531;-66
2022/10/12 13:22:29;;;;;;;8.77;5.07;;;;;;;;;;5011133;28;20049;-66
2022/10/12 13:25:07;;;;;;;9.57;5.78;;;;;;;;;;4995101;28;20053;-66
2022/10/12 13:27:49;;;;;;;10.68;5.15;;;;;;;;;;4994589;28;20143;-66
2022/10/12 13:30:31;;;;;;;11.55;5.20;;;;;;;;;;4994852;28;20092;-66
2022/10/12 13:33:05;;;;;;;9.97;5.50;;;;;;;;;;5011814;28;20485;-66
2022/10/12 13:35:38;;;;;;;9.38;5.80;;;;;;;;;;5010845;28;20054;-65
2022/10/12 13:38:26;;;;;;;9.25;6.10;;;;;;;;;;5011349;28;20050;-66
2022/10/12 13:41:14;;;;;;;7.72;5.28;;;;;;;;;;5012082;28;20125;-66
2022/10/12 13:43:51;;;;;;;10.35;5.75;;;;;;;;;;5011804;28;20085;-66
2022/10/12 13:46:37;;;;;;;16.15;6.22;;;;;;;;;;5011743;28;20586;-65
2022/10/12 13:49:15;;;;;;;11.95;5.25;;;;;;;;;;5010990;28;20116;-64
2022/10/12 13:51:43;;;;;;;11.18;5.65;;;;;;;;;;5012032;28;20041;-64
2022/10/12 13:54:15;;;;;;;10.07;5.32;;;;;;;;;;5011905;28;20050;-65
2022/10/12 13:56:42;;;;;;;8.00;4.55;;;;;;;;;;5015296;28;20092;-64
2022/10/12 13:59:15;;;;;;;16.10;6.50;;;;;;;;;;5013733;28;20053;-64
2022/10/12 14:01:53;;;;;;;10.73;5.18;;;;;;;;;;4998887;28;20114;-64
2022/10/12 14:04:20;;;;;;;6.38;5.18;;;;;;;;;;5015363;28;20497;-66
2022/10/12 14:06:52;;;;;;;10.40;5.85;;;;;;;;;;5015146;28;20077;-66
2022/10/12 14:09:20;;;;;;;10.13;5.72;;;;;;;;;;4997547;28;20136;-66
2022/10/12 14:11:46;;;;;;;7.50;5.43;;;;;;;;;;4997430;28;20134;-65
2022/10/12 14:14:31;;;;;;;7.13;5.15;;;;;;;;;;5014199;28;20100;-66
2022/10/12 14:16:58;;;;;;;10.85;6.00;;;;;;;;;;5013929;28;20080;-66
2022/10/12 14:19:38;;;;;;;10.15;5.78;;;;;;;;;;4996932;28;20592;-64
2022/10/12 14:22:04;;;;;;;11.38;5.43;;;;;;;;;;5013806;28;20121;-64
2022/10/12 14:24:31;;;;;;;9.05;5.40;;;;;;;;;;4997516;28;20054;-66
2022/10/12 14:26:59;;;;;;;9.00;6.10;;;;;;;;;;4997383;28;20089;-65
2022/10/12 14:29:38;;;;;;;11.05;5.75;;;;;;;;;;5013194;28;20081;-66
2022/10/12 14:32:07;;;;;;;11.18;5.80;;;;;;;;;;5014789;28;20061;-66
2022/10/12 14:34:40;;;;;;;11.73;5.60;;;;;;;;;;4997439;28;20062;-66
2022/10/12 14:37:15;;;;;;;14.20;6.28;;;;;;;;;;5014928;28;20271;-66
2022/10/12 14:39:47;;;;;;;10.82;6.30;;;;;;;;;;5013968;28;20085;-66
2022/10/12 14:42:34;;;;;;;13.15;6.10;;;;;;;;;;5013734;28;20137;-66
2022/10/12 14:45:03;;;;;;;14.23;6.57;;;;;;;;;;5013391;28;20053;-66
2022/10/12 14:47:39;;;;;;;13.23;5.60;;;;;;;;;;5014355;28;20093;-66
2022/10/12 14:50:07;;;;;;;10.25;6.18;;;;;;;;;;5012727;28;20144;-65